createdAt,value
2018-01-19T00:01:22.232Z,86.40
2018-01-19T00:03:49.690Z,86.30
2018-01-19T00:06:17.166Z,86.50
2018-01-19T00:08:44.631Z,86.20
2018-01-19T00:11:12.881Z,86.50
2018-01-19T00:13:40.346Z,86.50
2018-01-19T00:16:07.833Z,86.20
2018-01-19T00:18:35.294Z,85.90
2018-01-19T00:21:02.783Z,85.80
2018-01-19T00:23:30.230Z,86.10
2018-01-19T00:25:57.706Z,85.90
2018-01-19T00:28:25.161Z,86.60
2018-01-19T00:30:52.618Z,86.70
2018-01-19T00:33:20.098Z,87.00
2018-01-19T00:35:48.333Z,87.50
2018-01-19T00:38:15.797Z,87.40
2018-01-19T00:40:43.274Z,87.70
2018-01-19T00:43:10.763Z,87.80
2018-01-19T00:45:38.997Z,87.70
2018-01-19T00:48:06.471Z,87.80
2018-01-19T00:50:34.719Z,87.80
2018-01-19T00:53:02.187Z,87.70
2018-01-19T00:55:29.661Z,87.70
2018-01-19T00:57:57.886Z,87.90
2018-01-19T01:00:25.366Z,87.80
2018-01-19T01:02:52.842Z,87.70
2018-01-19T01:05:20.387Z,87.70
2018-01-19T01:07:47.871Z,87.40
2018-01-19T01:10:16.151Z,87.80
2018-01-19T01:12:43.609Z,87.70
2018-01-19T01:15:11.087Z,87.40
2018-01-19T01:17:38.554Z,87.60
2018-01-19T01:20:06.069Z,87.50
2018-01-19T01:22:33.599Z,87.60
2018-01-19T01:25:01.063Z,87.50
2018-01-19T01:27:29.314Z,87.70
2018-01-19T01:29:56.778Z,87.70
2018-01-19T01:32:24.413Z,87.40
2018-01-19T01:34:51.866Z,87.40
2018-01-19T01:37:19.329Z,87.50
2018-01-19T01:39:46.799Z,87.30
2018-01-19T01:42:14.264Z,87.50
2018-01-19T01:44:41.727Z,87.20
2018-01-19T01:47:09.950Z,87.90
2018-01-19T01:49:37.416Z,87.70
2018-01-19T01:52:04.901Z,87.50
2018-01-19T01:54:33.571Z,87.30
2018-01-19T01:57:01.036Z,87.70
2018-01-19T01:59:28.514Z,87.80
2018-01-19T02:01:56.730Z,87.20
2018-01-19T02:04:24.210Z,87.20
2018-01-19T02:06:51.702Z,87.20
2018-01-19T02:09:19.161Z,87.30
2018-01-19T02:11:47.403Z,88.00
2018-01-19T02:14:14.856Z,88.00
2018-01-19T02:16:43.882Z,88.20
2018-01-19T02:19:12.108Z,87.90
2018-01-19T02:21:39.596Z,87.90
2018-01-19T02:24:07.060Z,88.70
2018-01-19T02:26:35.309Z,88.60
2018-01-19T02:29:02.774Z,87.90
2018-01-19T02:31:30.251Z,88.30
2018-01-19T02:33:58.472Z,89.30
2018-01-19T02:36:25.975Z,89.30
2018-01-19T02:38:53.447Z,89.20
2018-01-19T02:41:23.305Z,89.60
2018-01-19T02:43:50.786Z,89.60
2018-01-19T02:46:18.262Z,89.70
2018-01-19T02:48:46.508Z,89.80
2018-01-19T02:51:13.991Z,89.80
2018-01-19T02:53:42.240Z,89.70
2018-01-19T02:56:09.709Z,89.70
2018-01-19T02:58:37.180Z,89.70
2018-01-19T03:01:05.418Z,90.00
2018-01-19T03:03:32.894Z,90.00
2018-01-19T03:06:01.150Z,90.10
2018-01-19T03:08:28.621Z,90.10
2018-01-19T03:10:56.195Z,90.00
2018-01-19T03:13:23.618Z,90.10
2018-01-19T03:15:51.094Z,90.20
2018-01-19T03:18:19.313Z,90.20
2018-01-19T03:20:46.795Z,90.20
2018-01-19T03:23:14.269Z,90.20
2018-01-19T03:25:41.754Z,90.20
2018-01-19T03:28:09.279Z,90.30
2018-01-19T03:30:36.809Z,90.30
2018-01-19T03:33:04.990Z,90.00
2018-01-19T03:35:32.462Z,90.00
2018-01-19T03:38:01.425Z,90.30
2018-01-19T03:40:28.910Z,90.30
2018-01-19T03:42:56.379Z,90.50
2018-01-19T03:45:23.892Z,90.60
2018-01-19T03:47:51.370Z,90.50
2018-01-19T03:50:18.851Z,90.80
2018-01-19T03:52:46.322Z,90.80
2018-01-19T03:55:13.798Z,91.00
2018-01-19T03:57:41.285Z,91.00
2018-01-19T04:00:08.760Z,91.00
2018-01-19T04:02:36.283Z,90.90
2018-01-19T04:05:03.763Z,90.90
2018-01-19T04:07:31.280Z,90.80
2018-01-19T04:09:58.836Z,90.80
2018-01-19T04:12:26.470Z,90.50
2018-01-19T04:14:54.791Z,90.60
2018-01-19T04:17:22.547Z,90.60
2018-01-19T04:19:50.175Z,90.50
2018-01-19T04:22:18.684Z,90.30
2018-01-19T04:24:46.193Z,90.30
2018-01-19T04:27:14.432Z,90.60
2018-01-19T04:29:41.985Z,90.20
2018-01-19T04:32:09.647Z,90.20
2018-01-19T04:34:37.170Z,90.30
2018-01-19T04:37:04.713Z,90.30
2018-01-19T04:39:32.950Z,90.40
2018-01-19T04:42:00.406Z,90.40
2018-01-19T04:44:27.942Z,90.40
2018-01-19T04:46:55.401Z,90.40
2018-01-19T04:49:22.883Z,90.40
2018-01-19T04:51:50.353Z,90.00
2018-01-19T04:54:18.595Z,90.20
2018-01-19T04:56:46.077Z,90.10
2018-01-19T04:59:13.570Z,90.00
2018-01-19T05:01:41.040Z,90.20
2018-01-19T05:04:08.539Z,90.20
2018-01-19T05:06:36.025Z,90.20
2018-01-19T05:09:04.242Z,90.50
2018-01-19T05:11:31.724Z,90.40
2018-01-19T05:13:59.229Z,90.40
2018-01-19T05:16:26.834Z,90.50
2018-01-19T05:18:54.348Z,90.60
2018-01-19T05:21:21.903Z,90.70
2018-01-19T05:23:49.366Z,90.60
2018-01-19T05:26:17.771Z,90.60
2018-01-19T05:28:45.242Z,90.60
2018-01-19T05:31:12.781Z,90.50
2018-01-19T05:33:40.263Z,90.70
2018-01-19T05:36:07.825Z,90.60
2018-01-19T05:38:35.298Z,90.80
2018-01-19T05:41:03.522Z,91.00
2018-01-19T05:43:30.990Z,91.00
2018-01-19T05:45:58.479Z,91.00
2018-01-19T05:48:26.718Z,91.30
2018-01-19T05:50:54.204Z,91.30
2018-01-19T05:53:22.492Z,91.20
2018-01-19T05:55:50.719Z,91.30
2018-01-19T05:58:18.200Z,91.30
2018-01-19T06:00:45.668Z,91.30
2018-01-19T06:03:13.923Z,91.30
2018-01-19T06:05:41.416Z,91.30
2018-01-19T06:08:08.895Z,91.10
2018-01-19T06:10:36.394Z,91.00
2018-01-19T06:13:04.641Z,91.30
2018-01-19T06:15:32.157Z,91.20
2018-01-19T06:17:59.682Z,90.80
2018-01-19T06:20:28.718Z,91.70
2018-01-19T06:22:56.181Z,91.70
2018-01-19T06:25:23.669Z,91.70
2018-01-19T06:27:51.142Z,91.70
2018-01-19T06:30:18.627Z,91.80
2018-01-19T06:32:46.151Z,91.80
2018-01-19T06:35:13.625Z,91.90
2018-01-19T06:37:41.935Z,91.90
2018-01-19T06:40:09.419Z,91.80
2018-01-19T06:42:36.893Z,92.10
2018-01-19T06:45:04.356Z,92.00
2018-01-19T06:47:31.964Z,92.00
2018-01-19T06:49:59.585Z,92.00
2018-01-19T06:52:27.829Z,92.10
2018-01-19T06:54:55.451Z,91.80
2018-01-19T06:57:22.923Z,91.60
2018-01-19T06:59:50.383Z,91.30
2018-01-19T07:02:17.878Z,91.30
2018-01-19T07:04:46.107Z,91.70
2018-01-19T07:07:13.610Z,91.70
2018-01-19T07:09:41.078Z,91.80
2018-01-19T07:12:09.323Z,92.10
2018-01-19T07:14:36.803Z,92.10
2018-01-19T07:17:05.067Z,92.10
2018-01-19T07:19:32.535Z,92.10
2018-01-19T07:22:00.780Z,92.30
2018-01-19T07:24:28.283Z,92.30
2018-01-19T07:26:55.744Z,92.40
2018-01-19T07:29:23.217Z,92.50
2018-01-19T07:31:50.696Z,92.20
2018-01-19T07:34:18.170Z,92.30
2018-01-19T07:36:45.640Z,92.30
2018-01-19T07:39:13.878Z,92.30
2018-01-19T07:41:41.617Z,92.30
2018-01-19T07:44:09.089Z,92.40
2018-01-19T07:46:36.571Z,92.10
2018-01-19T07:49:04.043Z,92.20
2018-01-19T07:51:32.278Z,92.30
2018-01-19T07:53:59.734Z,92.10
2018-01-19T07:56:27.208Z,92.40
2018-01-19T07:58:54.727Z,92.50
2018-01-19T08:01:22.256Z,92.40
2018-01-19T08:03:50.508Z,92.80
2018-01-19T08:06:17.986Z,92.80
2018-01-19T08:08:45.476Z,92.90
2018-01-19T08:11:12.949Z,92.80
2018-01-19T08:13:40.415Z,93.10
2018-01-19T08:16:09.406Z,93.40
2018-01-19T08:18:36.897Z,93.30
2018-01-19T08:21:05.130Z,93.30
2018-01-19T08:23:32.619Z,93.30
2018-01-19T08:26:00.994Z,93.40
2018-01-19T08:28:28.472Z,93.40
2018-01-19T08:30:55.942Z,93.70
2018-01-19T08:33:23.424Z,93.60
2018-01-19T08:35:50.893Z,93.60
2018-01-19T08:38:18.380Z,93.70
2018-01-19T08:40:46.620Z,94.10
2018-01-19T08:43:14.101Z,93.70
2018-01-19T08:45:42.348Z,94.10
2018-01-19T08:48:09.834Z,93.80
2018-01-19T08:50:38.079Z,94.00
2018-01-19T08:53:05.553Z,94.00
2018-01-19T08:55:33.045Z,94.10
2018-01-19T08:58:00.518Z,94.40
2018-01-19T09:00:28.002Z,94.10
2018-01-19T09:02:55.472Z,93.90
2018-01-19T09:05:22.954Z,94.00
2018-01-19T09:07:51.204Z,93.90
2018-01-19T09:10:19.466Z,93.80
2018-01-19T09:12:46.946Z,93.80
2018-01-19T09:15:15.209Z,93.80
2018-01-19T09:17:42.668Z,93.80
2018-01-19T09:20:10.174Z,94.10
2018-01-19T09:22:37.657Z,93.90
2018-01-19T09:25:05.158Z,94.20
2018-01-19T09:27:33.435Z,92.80
2018-01-19T09:30:01.725Z,93.10
2018-01-19T09:32:29.255Z,93.10
2018-01-19T09:34:57.541Z,93.20
2018-01-19T09:37:25.785Z,93.10
2018-01-19T09:39:53.301Z,93.10
2018-01-19T09:42:20.781Z,92.70
2018-01-19T09:44:48.263Z,92.70
2018-01-19T09:47:15.734Z,92.20
2018-01-19T09:49:44.044Z,93.10
2018-01-19T09:52:11.538Z,93.00
2018-01-19T09:54:39.054Z,93.30
2018-01-19T09:57:06.532Z,92.90
2018-01-19T09:59:33.989Z,92.00
2018-01-19T10:02:01.445Z,92.30
2018-01-19T10:04:28.931Z,91.90
2018-01-19T10:06:56.432Z,92.40
2018-01-19T10:09:24.662Z,91.90
2018-01-19T10:11:52.118Z,91.90
2018-01-19T10:14:19.604Z,91.50
2018-01-19T10:16:47.058Z,91.60
2018-01-19T10:19:14.540Z,91.20
2018-01-19T10:21:41.997Z,90.50
2018-01-19T10:24:09.497Z,89.70
2018-01-19T10:26:36.962Z,90.00
2018-01-19T10:29:04.478Z,87.00
2018-01-19T10:31:31.968Z,85.60
2018-01-19T10:33:59.452Z,85.90
2018-01-19T10:36:26.912Z,85.90
2018-01-19T10:38:54.390Z,86.90
2018-01-19T10:41:21.870Z,86.60
2018-01-19T10:43:49.332Z,87.00
2018-01-19T10:46:16.814Z,87.20
2018-01-19T10:48:45.051Z,88.20
2018-01-19T10:51:12.559Z,88.20
2018-01-19T10:53:40.788Z,88.80
2018-01-19T10:56:08.276Z,88.70
2018-01-19T10:58:36.511Z,88.10
2018-01-19T11:01:04.014Z,87.90
2018-01-19T11:03:32.248Z,87.10
2018-01-19T11:05:59.731Z,87.00
2018-01-19T11:08:27.195Z,87.00
2018-01-19T11:10:55.443Z,89.10
2018-01-19T11:13:23.717Z,87.50
2018-01-19T11:15:51.174Z,86.80
2018-01-19T11:18:18.647Z,87.90
2018-01-19T11:20:46.872Z,89.40
2018-01-19T11:23:14.354Z,90.00
2018-01-19T11:25:41.838Z,88.50
2018-01-19T11:28:10.144Z,87.70
2018-01-19T11:30:37.629Z,87.60
2018-01-19T11:33:05.098Z,86.50
2018-01-19T11:35:32.588Z,86.90
2018-01-19T11:38:00.812Z,86.70
2018-01-19T11:40:28.293Z,86.70
2018-01-19T11:42:55.774Z,83.80
2018-01-19T11:45:24.080Z,81.20
2018-01-19T11:47:51.539Z,81.20
2018-01-19T11:50:19.032Z,79.20
2018-01-19T11:52:46.502Z,81.20
2018-01-19T11:55:14.782Z,79.90
2018-01-19T11:57:43.029Z,77.70
2018-01-19T12:00:10.534Z,77.50
2018-01-19T12:02:38.027Z,77.40
2018-01-19T12:05:05.475Z,76.70
2018-01-19T12:07:32.995Z,77.50
2018-01-19T12:10:01.229Z,77.40
2018-01-19T12:12:28.698Z,77.30
2018-01-19T12:14:56.167Z,73.00
2018-01-19T12:17:24.736Z,69.90
2018-01-19T12:19:52.197Z,69.90
2018-01-19T12:22:20.481Z,73.50
2018-01-19T12:24:48.721Z,71.90
2018-01-19T12:27:16.184Z,71.80
2018-01-19T12:29:43.693Z,69.50
2018-01-19T12:32:11.314Z,69.00
2018-01-19T12:34:38.820Z,68.50
2018-01-19T12:37:06.327Z,70.00
2018-01-19T12:39:33.810Z,69.90
2018-01-19T12:42:02.045Z,66.40
2018-01-19T12:44:29.534Z,66.40
2018-01-19T12:46:57.756Z,70.60
2018-01-19T12:49:25.289Z,70.50
2018-01-19T12:51:52.795Z,70.50
2018-01-19T12:54:20.277Z,70.10
2018-01-19T12:56:48.512Z,69.50
2018-01-19T12:59:16.032Z,69.30
2018-01-19T13:01:43.514Z,69.00
2018-01-19T13:04:10.985Z,69.30
2018-01-19T13:06:38.446Z,68.70
2018-01-19T13:09:05.940Z,69.80
2018-01-19T13:11:33.415Z,69.50
2018-01-19T13:14:00.909Z,70.40
2018-01-19T13:16:28.450Z,68.90
2018-01-19T13:18:56.070Z,70.30
2018-01-19T13:21:23.568Z,67.60
2018-01-19T13:23:51.033Z,68.30
2018-01-19T13:26:18.582Z,69.60
2018-01-19T13:28:46.088Z,66.20
2018-01-19T13:31:14.336Z,65.60
2018-01-19T13:33:42.558Z,62.50
2018-01-19T13:36:10.047Z,62.50
2018-01-19T13:38:37.515Z,63.70
2018-01-19T13:41:05.000Z,63.60
2018-01-19T13:43:32.546Z,63.70
2018-01-19T13:46:00.052Z,63.10
2018-01-19T13:48:27.785Z,64.40
2018-01-19T13:50:56.093Z,63.70
2018-01-19T13:53:24.406Z,63.80
2018-01-19T13:55:51.866Z,63.80
2018-01-19T13:58:19.367Z,63.40
2018-01-19T14:00:46.843Z,61.90
2018-01-19T14:03:14.327Z,62.80
2018-01-19T14:05:41.797Z,63.00
2018-01-19T14:08:09.500Z,61.30
2018-01-19T14:10:36.965Z,61.10
2018-01-19T14:13:04.531Z,61.50
2018-01-19T14:15:32.009Z,61.00
2018-01-19T14:17:59.487Z,60.00
2018-01-19T14:20:27.093Z,59.70
2018-01-19T14:22:54.630Z,59.90
2018-01-19T14:25:22.154Z,60.10
2018-01-19T14:27:49.608Z,60.10
2018-01-19T14:30:17.127Z,60.60
2018-01-19T14:32:44.637Z,60.90
2018-01-19T14:35:12.900Z,62.50
2018-01-19T14:37:40.610Z,62.40
2018-01-19T14:40:08.129Z,63.70
2018-01-19T14:42:36.362Z,64.00
2018-01-19T14:45:03.855Z,64.00
2018-01-19T14:47:32.171Z,64.90
2018-01-19T14:49:59.653Z,64.80
2018-01-19T14:52:27.256Z,65.10
2018-01-19T14:54:55.494Z,66.20
2018-01-19T14:57:22.993Z,66.00
2018-01-19T14:59:51.247Z,66.90
2018-01-19T15:02:19.548Z,67.50
2018-01-19T15:04:47.008Z,67.40
2018-01-19T15:07:14.504Z,67.90
2018-01-19T15:09:41.944Z,68.50
2018-01-19T15:12:09.418Z,69.00
2018-01-19T15:14:36.894Z,68.90
2018-01-19T15:17:04.363Z,68.60
2018-01-19T15:19:32.628Z,68.90
2018-01-19T15:22:00.091Z,68.80
2018-01-19T15:24:28.350Z,69.60
2018-01-19T15:26:55.846Z,69.10
2018-01-19T15:29:23.335Z,69.10
2018-01-19T15:31:50.799Z,69.40
2018-01-19T15:34:18.271Z,69.80
2018-01-19T15:36:45.752Z,70.00
2018-01-19T15:39:13.999Z,70.30
2018-01-19T15:41:41.624Z,70.30
2018-01-19T15:44:09.107Z,70.50
2018-01-19T15:46:36.578Z,70.90
2018-01-19T15:49:04.056Z,71.10
2018-01-19T15:51:32.310Z,71.80
2018-01-19T15:53:59.797Z,71.70
2018-01-19T15:56:27.283Z,71.90
2018-01-19T15:58:54.809Z,72.30
2018-01-19T16:01:22.315Z,72.60
2018-01-19T16:03:49.838Z,72.50
2018-01-19T16:06:17.318Z,72.70
2018-01-19T16:08:44.861Z,72.90
2018-01-19T16:11:12.344Z,73.00
2018-01-19T16:13:39.814Z,72.80
2018-01-19T16:16:07.290Z,72.80
2018-01-19T16:18:35.543Z,72.40
2018-01-19T16:21:03.045Z,72.40
2018-01-19T16:23:30.543Z,71.70
2018-01-19T16:25:58.020Z,70.90
2018-01-19T16:28:26.273Z,70.40
2018-01-19T16:30:53.768Z,70.30
2018-01-19T16:33:22.200Z,70.20
2018-01-19T16:35:49.692Z,70.20
2018-01-19T16:38:17.933Z,70.90
2018-01-19T16:40:45.465Z,70.80
2018-01-19T16:43:12.943Z,71.00
2018-01-19T16:45:40.432Z,70.80
2018-01-19T16:48:08.667Z,71.90
2018-01-19T16:50:36.171Z,71.10
2018-01-19T16:53:04.426Z,70.90
2018-01-19T16:55:31.898Z,70.80
2018-01-19T16:58:00.139Z,71.20
2018-01-19T17:00:27.626Z,71.30
2018-01-19T17:02:55.864Z,71.30
2018-01-19T17:05:23.329Z,71.10
2018-01-19T17:07:51.597Z,71.50
2018-01-19T17:10:19.100Z,71.80
2018-01-19T17:12:47.336Z,72.20
2018-01-19T17:15:15.591Z,72.50
2018-01-19T17:17:43.101Z,72.50
2018-01-19T17:20:11.335Z,72.40
2018-01-19T17:22:38.832Z,72.30
2018-01-19T17:25:07.087Z,72.50
2018-01-19T17:27:34.600Z,72.50
2018-01-19T17:30:02.075Z,72.60
2018-01-19T17:32:29.562Z,72.80
2018-01-19T17:34:57.885Z,73.00
2018-01-19T17:37:25.325Z,73.00
2018-01-19T17:39:52.908Z,73.00
2018-01-19T17:42:20.545Z,73.70
2018-01-19T17:44:48.046Z,74.00
2018-01-19T17:47:15.828Z,74.10
2018-01-19T17:49:44.101Z,74.50
2018-01-19T17:52:12.516Z,75.00
2018-01-19T17:54:39.995Z,74.70
2018-01-19T17:57:07.521Z,74.80
2018-01-19T17:59:35.006Z,75.00
2018-01-19T18:02:02.473Z,74.50
2018-01-19T18:04:29.995Z,74.50
2018-01-19T18:06:57.534Z,74.70
2018-01-19T18:09:25.828Z,75.30
2018-01-19T18:11:53.301Z,74.70
2018-01-19T18:14:20.792Z,74.80
2018-01-19T18:16:48.264Z,74.60
2018-01-19T18:19:16.521Z,74.20
2018-01-19T18:21:43.990Z,74.20
2018-01-19T18:24:12.240Z,73.90
2018-01-19T18:26:39.709Z,73.80
2018-01-19T18:29:07.205Z,73.80
2018-01-19T18:31:34.694Z,73.90
2018-01-19T18:34:02.167Z,73.70
2018-01-19T18:36:29.662Z,73.90
2018-01-19T18:38:57.938Z,74.10
2018-01-19T18:41:25.397Z,74.10
2018-01-19T18:43:52.930Z,74.50
2018-01-19T18:46:21.169Z,76.30
2018-01-19T18:48:48.699Z,75.50
2018-01-19T18:51:16.179Z,75.80
2018-01-19T18:53:43.648Z,76.00
2018-01-19T18:56:11.138Z,76.20
2018-01-19T18:58:39.370Z,76.30
2018-01-19T19:01:06.839Z,76.20
2018-01-19T19:03:34.315Z,76.00
2018-01-19T19:06:02.571Z,76.10
2018-01-19T19:08:31.548Z,76.20
2018-01-19T19:10:59.044Z,76.10
2018-01-19T19:13:27.267Z,76.10
2018-01-19T19:15:54.781Z,76.10
2018-01-19T19:18:23.027Z,76.00
2018-01-19T19:20:51.293Z,76.10
2018-01-19T19:23:18.822Z,76.10
2018-01-19T19:25:46.696Z,75.90
2018-01-19T19:28:14.491Z,75.80
2018-01-19T19:30:41.968Z,75.50
2018-01-19T19:33:10.210Z,75.60
2018-01-19T19:35:37.752Z,75.60
2018-01-19T19:38:05.383Z,75.70
2018-01-19T19:40:33.075Z,75.80
2018-01-19T19:43:00.596Z,76.00
2018-01-19T19:45:28.142Z,75.90
2018-01-19T19:47:55.673Z,75.90
2018-01-19T19:50:24.095Z,75.60
2018-01-19T19:52:51.957Z,75.60
2018-01-19T19:55:19.478Z,75.70
2018-01-19T19:57:47.714Z,76.00
2018-01-19T20:00:15.214Z,76.00
2018-01-19T20:02:43.477Z,76.80
2018-01-19T20:05:10.947Z,76.70
2018-01-19T20:07:39.274Z,77.60
2018-01-19T20:10:07.593Z,77.60
2018-01-19T20:12:35.111Z,78.10
2018-01-19T20:15:02.588Z,78.80
2018-01-19T20:17:30.131Z,78.80
2018-01-19T20:19:57.678Z,79.20
2018-01-19T20:22:25.185Z,79.50
2018-01-19T20:24:53.793Z,80.10
2018-01-19T20:27:21.310Z,80.10
2018-01-19T20:29:48.798Z,80.40
2018-01-19T20:32:16.282Z,81.20
2018-01-19T20:34:43.767Z,81.20
2018-01-19T20:37:11.230Z,82.00
2018-01-19T20:39:39.510Z,82.90
2018-01-19T20:42:07.746Z,83.20
2018-01-19T20:44:35.282Z,83.20
2018-01-19T20:47:03.141Z,83.30
2018-01-19T20:49:31.447Z,84.50
2018-01-19T20:51:58.956Z,83.90
2018-01-19T20:54:27.748Z,84.10
2018-01-19T20:56:55.374Z,84.10
2018-01-19T20:59:23.180Z,84.40
2018-01-19T21:01:51.167Z,84.60
2018-01-19T21:04:20.173Z,85.20
2018-01-19T21:06:47.674Z,85.10
2018-01-19T21:09:15.171Z,85.40
2018-01-19T21:11:42.739Z,85.60
2018-01-19T21:14:10.326Z,85.60
2018-01-19T21:16:37.798Z,85.30
2018-01-19T21:19:06.059Z,85.80
2018-01-19T21:21:33.561Z,85.80
2018-01-19T21:24:01.051Z,86.70
2018-01-19T21:26:28.540Z,86.00
2018-01-19T21:28:56.784Z,86.30
2018-01-19T21:31:24.290Z,86.20
2018-01-19T21:33:51.895Z,86.20
2018-01-19T21:36:19.377Z,86.20
2018-01-19T21:38:46.860Z,86.40
2018-01-19T21:41:14.382Z,86.40
2018-01-19T21:43:41.869Z,86.20
2018-01-19T21:46:09.365Z,86.60
2018-01-19T21:48:36.863Z,86.50
2018-01-19T21:51:04.367Z,87.00
2018-01-19T21:53:31.866Z,86.90
2018-01-19T21:55:59.332Z,86.70
2018-01-19T21:58:26.859Z,86.90
2018-01-19T22:00:54.363Z,86.60
2018-01-19T22:03:21.859Z,86.60
2018-01-19T22:05:49.328Z,86.50
2018-01-19T22:08:17.639Z,86.40
2018-01-19T22:10:45.877Z,87.00
2018-01-19T22:13:13.372Z,86.30
2018-01-19T22:15:40.861Z,86.60
2018-01-19T22:18:08.334Z,86.80
2018-01-19T22:20:35.829Z,86.90
2018-01-19T22:23:04.066Z,86.60
2018-01-19T22:25:31.532Z,86.50
2018-01-19T22:27:59.045Z,86.70
2018-01-19T22:30:26.521Z,86.50
2018-01-19T22:32:54.028Z,86.40
2018-01-19T22:35:22.316Z,85.50
2018-01-19T22:37:49.798Z,85.50
2018-01-19T22:40:17.362Z,85.30
2018-01-19T22:42:44.833Z,85.30
2018-01-19T22:45:12.324Z,85.20
2018-01-19T22:47:40.578Z,85.10
2018-01-19T22:50:08.071Z,85.10
2018-01-19T22:52:35.550Z,85.40
2018-01-19T22:55:03.062Z,84.70
2018-01-19T22:57:31.319Z,84.90
2018-01-19T22:59:58.791Z,84.90
2018-01-19T23:02:27.078Z,84.90
2018-01-19T23:04:55.316Z,85.10
2018-01-19T23:07:22.798Z,85.10
2018-01-19T23:09:51.031Z,85.00
2018-01-19T23:12:18.523Z,85.00
2018-01-19T23:14:46.756Z,83.90
2018-01-19T23:17:14.269Z,84.50
2018-01-19T23:19:42.601Z,84.10
2018-01-19T23:22:10.072Z,84.10
2018-01-19T23:24:37.566Z,84.10
2018-01-19T23:27:05.030Z,83.80
2018-01-19T23:29:32.517Z,83.80
2018-01-19T23:32:00.006Z,83.80
2018-01-19T23:34:27.495Z,83.50
2018-01-19T23:36:54.961Z,83.80
2018-01-19T23:39:22.461Z,83.80
2018-01-19T23:41:49.969Z,83.80
2018-01-19T23:44:17.511Z,84.00
2018-01-19T23:46:45.022Z,84.10
2018-01-19T23:49:12.508Z,83.80
2018-01-19T23:51:40.766Z,83.50
2018-01-19T23:54:08.244Z,83.30
2018-01-19T23:56:36.485Z,83.30
2018-01-19T23:59:04.758Z,83.30
